Estación Meteorológica Peña el Pijo (Robertgarden) [ 11/20/18 00:45:58 CET ]

Fecha Hora Presion(HPa) Temp (°C) Humedad % Rocio (°C) Viento ( m/s) Direccion Lluvia 1Hora(mm) Lluvia 24H(mm) LLuvia Total(mm)
2018-Jan-26 01:01:49 1005.200 4.5 73 0.1         62.16
2018-Jan-26 02:01:43 1004.900 3.6 76 -0.2         62.16
2018-Jan-26 03:04:11 1004.700 3.3 73 -1.1         62.16
2018-Jan-26 04:01:51 1004.600 2.9 73 -1.5 0.7 NW     62.16
2018-Jan-26 05:02:00 1004.400 1.8 77 -1.8         62.16
2018-Jan-26 06:01:55 1004.600 1.6 79 -1.7         62.16
2018-Jan-26 07:01:52 1005.700 1.3 80 -1.8         62.16
2018-Jan-26 08:01:36 1006.900 1.3 80 -1.8         62.16
2018-Jan-26 09:01:48 1007.300 1.6 79 -1.7         62.16
2018-Jan-26 10:01:41 1008.300 1.3 80 -1.8         62.16
2018-Jan-26 11:01:49 1008.700 2.9 78 -0.6         62.16
2018-Jan-26 12:01:41 1009.000 3.9 67 -1.7 0.7 WNW     62.16
2018-Jan-26 13:01:42 1009.100 4.9 62 -1.8 1.4 WNW     62.16
2018-Jan-26 14:01:46 1009.400 6.8 55 -1.6         62.16
2018-Jan-26 15:01:56 1009.100 6.3 54 -2.4         62.16
2018-Jan-26 16:02:03 1008.900 6.9 55 -1.6         62.16
2018-Jan-26 17:01:44 1009.600 5.2 57 -2.7         62.16
2018-Jan-26 18:01:48 1010.000 4.3 60 -2.8         62.16
2018-Jan-26 19:01:47 1010.700 4.2 59 -3.1         62.16
2018-Jan-26 20:01:50 1011.600 3.9 61 -3.0         62.16
2018-Jan-26 21:02:00 1012.100 3.8 61 -3.1         62.16
2018-Jan-26 22:01:53 1012.100 3.4 64 -2.8         62.16
2018-Jan-26 23:01:56 1012.500 3.1 68 -2.2         62.16

Temperatura Máxima:    Temperatura Mínima:
Presión Máxima:1012.500 Hpa    Presión Mínima:1004.400 Hpa


Volver